createdAt,value
2018-07-22T00:00:10.644Z,15.70
2018-07-22T00:02:39.724Z,15.60
2018-07-22T00:05:08.607Z,15.70
2018-07-22T00:07:37.512Z,15.50
2018-07-22T00:10:08.288Z,15.50
2018-07-22T00:12:38.958Z,15.30
2018-07-22T00:15:07.511Z,15.30
2018-07-22T00:17:36.072Z,15.50
2018-07-22T00:20:05.536Z,15.30
2018-07-22T00:22:34.051Z,15.20
2018-07-22T00:25:02.639Z,15.40
2018-07-22T00:27:31.145Z,15.30
2018-07-22T00:29:59.665Z,15.50
2018-07-22T00:32:28.237Z,15.50
2018-07-22T00:34:58.090Z,15.30
2018-07-22T00:37:26.767Z,15.20
2018-07-22T00:39:55.307Z,15.20
2018-07-22T00:42:25.297Z,15.10
2018-07-22T00:44:53.835Z,14.90
2018-07-22T00:47:22.381Z,14.80
2018-07-22T00:49:50.897Z,14.80
2018-07-22T00:52:19.419Z,14.70
2018-07-22T00:54:47.951Z,14.60
2018-07-22T00:57:16.476Z,14.50
2018-07-22T00:59:44.993Z,14.50
2018-07-22T01:02:13.544Z,14.60
2018-07-22T01:04:42.052Z,14.60
2018-07-22T01:07:11.712Z,14.70
2018-07-22T01:09:40.384Z,14.50
2018-07-22T01:12:08.905Z,14.40
2018-07-22T01:14:37.412Z,14.20
2018-07-22T01:17:07.294Z,14.20
2018-07-22T01:19:35.804Z,14.10
2018-07-22T01:22:04.369Z,14.00
2018-07-22T01:24:32.890Z,14.00
2018-07-22T01:27:01.409Z,14.00
2018-07-22T01:29:29.936Z,14.00
2018-07-22T01:31:58.471Z,13.90
2018-07-22T01:34:27.013Z,13.80
2018-07-22T01:36:55.508Z,13.70
2018-07-22T01:39:24.037Z,13.70
2018-07-22T01:41:54.342Z,13.70
2018-07-22T01:44:22.838Z,13.70
2018-07-22T01:46:51.475Z,13.80
2018-07-22T01:49:19.997Z,13.80
2018-07-22T01:51:48.514Z,13.70
2018-07-22T01:54:17.049Z,13.70
2018-07-22T01:56:45.598Z,13.60
2018-07-22T01:59:14.440Z,13.50
2018-07-22T02:01:43.061Z,13.40
2018-07-22T02:04:11.573Z,13.30
2018-07-22T02:06:40.182Z,13.20
2018-07-22T02:09:10.129Z,13.30
2018-07-22T02:11:38.896Z,13.30
2018-07-22T02:14:07.683Z,13.10
2018-07-22T02:16:36.394Z,13.10
2018-07-22T02:19:05.533Z,13.10
2018-07-22T02:21:34.467Z,13.10
2018-07-22T02:24:03.021Z,13.10
2018-07-22T02:26:32.013Z,13.00
2018-07-22T02:29:00.633Z,13.10
2018-07-22T02:31:30.159Z,13.10
2018-07-22T02:33:58.710Z,13.00
2018-07-22T02:36:27.459Z,13.00
2018-07-22T02:38:56.005Z,12.90
2018-07-22T02:41:25.129Z,12.80
2018-07-22T02:43:53.839Z,12.90
2018-07-22T02:46:22.398Z,12.90
2018-07-22T02:48:50.942Z,12.90
2018-07-22T02:51:19.875Z,12.80
2018-07-22T02:53:49.088Z,12.70
2018-07-22T02:56:17.602Z,12.80
2018-07-22T02:58:46.471Z,12.70
2018-07-22T03:01:15.005Z,12.60
2018-07-22T03:03:43.594Z,12.50
2018-07-22T03:06:12.468Z,12.50
2018-07-22T03:08:41.020Z,12.70
2018-07-22T03:11:09.727Z,12.50
2018-07-22T03:13:38.269Z,12.40
2018-07-22T03:16:07.246Z,12.40
2018-07-22T03:18:35.998Z,12.40
2018-07-22T03:21:04.529Z,12.40
2018-07-22T03:23:33.729Z,12.50
2018-07-22T03:27:31.430Z,12.40
2018-07-22T03:29:59.957Z,12.60
2018-07-22T03:32:28.589Z,12.40
2018-07-22T03:34:57.146Z,12.30
2018-07-22T03:37:25.716Z,12.20
2018-07-22T03:39:54.240Z,12.20
2018-07-22T03:42:22.808Z,12.20
2018-07-22T03:44:51.877Z,12.20
2018-07-22T03:47:20.651Z,12.10
2018-07-22T03:49:49.193Z,12.00
2018-07-22T03:52:17.752Z,12.00
2018-07-22T03:54:47.223Z,12.10
2018-07-22T03:57:15.773Z,12.10
2018-07-22T03:59:44.583Z,12.10
2018-07-22T04:02:13.114Z,12.00
2018-07-22T04:04:41.660Z,12.10
2018-07-22T04:07:10.718Z,12.20
2018-07-22T04:09:39.235Z,12.20
2018-07-22T04:12:08.295Z,12.20
2018-07-22T04:17:05.104Z,12.40
2018-07-22T04:19:34.536Z,12.40
2018-07-22T04:22:03.085Z,12.40
2018-07-22T04:24:31.601Z,12.50
2018-07-22T04:27:00.236Z,12.40
2018-07-22T04:29:29.297Z,12.50
2018-07-22T04:31:57.808Z,12.50
2018-07-22T04:34:26.457Z,12.50
2018-07-22T04:36:55.637Z,12.60
2018-07-22T04:39:24.184Z,12.80
2018-07-22T04:41:52.981Z,12.90
2018-07-22T04:44:21.578Z,12.90
2018-07-22T04:46:50.225Z,12.90
2018-07-22T04:49:18.766Z,13.10
2018-07-22T04:51:47.355Z,13.20
2018-07-22T04:54:15.868Z,13.30
2018-07-22T04:56:44.453Z,13.40
2018-07-22T04:59:13.016Z,13.60
2018-07-22T05:01:42.348Z,13.80
2018-07-22T05:06:39.078Z,14.00
2018-07-22T05:09:09.687Z,14.20
2018-07-22T05:11:38.486Z,14.20
2018-07-22T05:14:07.897Z,14.40
2018-07-22T05:16:36.649Z,14.50
2018-07-22T05:19:05.569Z,14.70
2018-07-22T05:21:34.173Z,15.00
2018-07-22T05:24:02.698Z,15.20
2018-07-22T05:26:31.223Z,15.30
2018-07-22T05:28:59.758Z,15.50
2018-07-22T05:31:28.365Z,15.60
2018-07-22T05:33:56.880Z,15.70
2018-07-22T05:36:25.435Z,15.90
2018-07-22T05:38:54.027Z,16.10
2018-07-22T05:41:22.834Z,16.20
2018-07-22T05:43:51.414Z,16.40
2018-07-22T05:46:19.950Z,16.50
2018-07-22T05:48:49.303Z,16.70
2018-07-22T05:51:17.948Z,16.90
2018-07-22T05:53:46.492Z,16.90
2018-07-22T05:56:15.022Z,17.10
2018-07-22T05:58:43.592Z,17.20
2018-07-22T06:01:12.126Z,17.40
2018-07-22T06:03:40.703Z,17.50
2018-07-22T06:06:09.308Z,17.50
2018-07-22T06:08:37.953Z,17.90
2018-07-22T06:11:06.736Z,18.00
2018-07-22T06:13:35.307Z,17.90
2018-07-22T06:16:03.856Z,18.10
2018-07-22T06:18:32.391Z,18.20
2018-07-22T06:21:01.072Z,18.30
2018-07-22T06:23:29.681Z,18.40
2018-07-22T06:25:58.196Z,18.40
2018-07-22T06:28:26.750Z,18.80
2018-07-22T06:30:55.249Z,18.90
2018-07-22T06:33:23.768Z,19.10
2018-07-22T06:35:52.348Z,19.20
2018-07-22T06:38:20.867Z,19.10
2018-07-22T06:40:49.360Z,19.30
2018-07-22T06:43:17.929Z,19.50
2018-07-22T06:45:46.422Z,19.80
2018-07-22T06:48:14.946Z,20.00
2018-07-22T06:50:43.488Z,20.50
2018-07-22T06:53:12.083Z,20.90
2018-07-22T06:55:40.626Z,21.40
2018-07-22T06:58:09.184Z,21.60
2018-07-22T07:00:37.798Z,22.00
2018-07-22T07:03:06.700Z,22.60
2018-07-22T07:05:35.267Z,23.10
2018-07-22T07:08:04.102Z,23.90
2018-07-22T07:10:32.683Z,23.90
2018-07-22T07:13:01.249Z,24.40
2018-07-22T07:15:29.753Z,24.40
2018-07-22T07:17:58.410Z,24.00
2018-07-22T07:20:27.077Z,25.00
2018-07-22T07:22:55.616Z,25.10
2018-07-22T07:25:24.287Z,24.90
2018-07-22T07:27:52.829Z,23.50
2018-07-22T07:30:21.462Z,24.60
2018-07-22T07:32:49.997Z,25.60
2018-07-22T07:35:18.533Z,24.50
2018-07-22T07:37:47.045Z,25.60
2018-07-22T07:40:15.616Z,26.50
2018-07-22T07:42:44.186Z,26.90
2018-07-22T07:46:41.920Z,26.70
2018-07-22T07:49:11.112Z,26.80
2018-07-22T07:51:39.730Z,26.80
2018-07-22T07:54:08.414Z,27.10
2018-07-22T07:56:36.973Z,27.50
2018-07-22T07:59:05.531Z,26.60
2018-07-22T08:04:02.340Z,26.90
2018-07-22T08:06:30.855Z,26.70
2018-07-22T08:08:59.410Z,26.30
2018-07-22T08:11:28.021Z,26.50
2018-07-22T08:13:56.543Z,26.60
2018-07-22T08:16:25.376Z,26.30
2018-07-22T08:18:56.438Z,25.90
2018-07-22T08:21:22.912Z,25.70
2018-07-22T08:23:51.423Z,26.10
2018-07-22T08:26:20.009Z,25.80
2018-07-22T08:29:28.933Z,25.60
2018-07-22T08:31:59.057Z,25.60
2018-07-22T08:34:27.568Z,26.50
2018-07-22T08:36:56.470Z,26.70
2018-07-22T08:39:27.272Z,27.00
2018-07-22T08:41:56.356Z,27.20
2018-07-22T08:44:24.987Z,26.40
2018-07-22T08:46:53.634Z,25.60
2018-07-22T08:49:22.241Z,25.20
2018-07-22T08:51:50.788Z,26.60
2018-07-22T08:54:20.177Z,27.60
2018-07-22T08:56:48.729Z,28.20
2018-07-22T08:59:17.261Z,26.80
2018-07-22T09:01:45.847Z,28.00
2018-07-22T09:04:14.533Z,27.80
2018-07-22T09:06:43.115Z,27.80
2018-07-22T09:09:12.645Z,27.40
2018-07-22T09:11:41.302Z,28.20
2018-07-22T09:14:10.502Z,28.00
2018-07-22T09:16:39.100Z,28.40
2018-07-22T09:19:07.725Z,27.70
2018-07-22T09:21:36.588Z,28.20
2018-07-22T09:24:05.195Z,28.70
2018-07-22T09:26:33.706Z,28.20
2018-07-22T09:29:02.321Z,28.80
2018-07-22T09:31:30.877Z,28.90
2018-07-22T09:33:59.454Z,29.10
2018-07-22T09:36:28.070Z,29.50
2018-07-22T09:38:56.539Z,29.50
2018-07-22T09:41:25.089Z,29.50
2018-07-22T09:43:53.628Z,29.70
2018-07-22T09:46:22.206Z,30.60
2018-07-22T09:48:50.715Z,29.50
2018-07-22T09:51:19.887Z,29.90
2018-07-22T09:53:48.482Z,30.00
2018-07-22T09:56:17.011Z,30.00
2018-07-22T09:58:45.531Z,30.00
2018-07-22T10:01:14.108Z,29.90
2018-07-22T10:03:42.677Z,30.90
2018-07-22T10:06:11.208Z,30.00
2018-07-22T10:08:40.629Z,30.20
2018-07-22T10:11:09.234Z,30.70
2018-07-22T10:13:38.519Z,30.70
2018-07-22T10:16:07.096Z,30.40
2018-07-22T10:18:35.608Z,30.70
2018-07-22T10:21:04.137Z,31.60
2018-07-22T10:23:32.723Z,31.40
2018-07-22T10:26:01.351Z,31.10
2018-07-22T10:28:29.876Z,31.60
2018-07-22T10:30:58.466Z,31.70
2018-07-22T10:33:27.000Z,31.90
2018-07-22T10:35:55.605Z,31.80
2018-07-22T10:38:24.090Z,31.80
2018-07-22T10:43:21.243Z,32.20
2018-07-22T10:45:50.854Z,31.20
2018-07-22T10:48:19.408Z,31.70
2018-07-22T10:50:49.575Z,31.40
2018-07-22T10:53:18.093Z,31.40
2018-07-22T10:55:46.594Z,32.30
2018-07-22T10:58:15.106Z,31.90
2018-07-22T11:00:44.821Z,31.30
2018-07-22T11:03:14.456Z,32.30
2018-07-22T11:08:11.188Z,31.80
2018-07-22T11:10:39.717Z,33.00
2018-07-22T11:13:08.249Z,33.50
2018-07-22T11:18:05.375Z,32.50
2018-07-22T11:20:33.901Z,33.30
2018-07-22T11:23:02.461Z,34.20
2018-07-22T11:25:31.097Z,33.30
2018-07-22T11:27:59.613Z,33.30
2018-07-22T11:30:28.169Z,33.00
2018-07-22T11:32:56.726Z,32.80
2018-07-22T11:35:25.264Z,33.10
2018-07-22T11:37:53.837Z,33.20
2018-07-22T11:40:22.367Z,33.50
2018-07-22T11:42:50.887Z,34.90
2018-07-22T11:45:19.414Z,35.30
2018-07-22T11:47:48.728Z,35.90
2018-07-22T11:50:17.252Z,31.80
2018-07-22T11:52:45.833Z,29.70
2018-07-22T11:55:14.399Z,29.00
2018-07-22T11:57:42.941Z,31.60
2018-07-22T12:00:11.506Z,33.50
2018-07-22T12:02:40.022Z,34.90
2018-07-22T12:05:08.561Z,34.70
2018-07-22T12:07:37.405Z,32.70
2018-07-22T12:10:06.041Z,30.20
2018-07-22T12:12:37.444Z,29.20
2018-07-22T12:15:06.073Z,29.00
2018-07-22T12:17:34.602Z,32.10
2018-07-22T12:20:04.018Z,33.60
2018-07-22T12:22:32.696Z,33.40
2018-07-22T12:25:01.221Z,33.50
2018-07-22T12:27:29.732Z,31.40
2018-07-22T12:29:58.644Z,30.40
2018-07-22T12:32:27.169Z,29.00
2018-07-22T12:34:55.685Z,28.50
2018-07-22T12:37:24.257Z,28.70
2018-07-22T12:39:53.379Z,28.10
2018-07-22T12:42:22.521Z,28.40
2018-07-22T12:44:53.091Z,28.60
2018-07-22T12:47:23.640Z,31.70
2018-07-22T12:49:52.479Z,31.70
2018-07-22T12:52:21.059Z,29.20
2018-07-22T12:54:49.568Z,29.00
2018-07-22T12:57:18.190Z,29.10
2018-07-22T12:59:46.763Z,29.10
2018-07-22T13:02:16.922Z,29.90
2018-07-22T13:04:45.481Z,30.70
2018-07-22T13:07:14.947Z,34.50
2018-07-22T13:09:43.660Z,34.00
2018-07-22T13:12:12.218Z,31.60
2018-07-22T13:14:40.984Z,31.60
2018-07-22T13:17:09.539Z,30.60
2018-07-22T13:19:38.104Z,29.60
2018-07-22T13:22:06.725Z,29.70
2018-07-22T13:24:35.275Z,30.60
2018-07-22T13:27:03.794Z,32.40
2018-07-22T13:29:32.344Z,32.60
2018-07-22T13:32:00.867Z,33.70
2018-07-22T13:36:57.683Z,32.80
2018-07-22T13:39:26.190Z,34.40
2018-07-22T13:41:54.705Z,31.90
2018-07-22T13:44:23.292Z,30.60
2018-07-22T13:46:51.853Z,30.40
2018-07-22T13:49:20.376Z,30.10
2018-07-22T13:51:49.106Z,30.30
2018-07-22T13:54:17.644Z,29.70
2018-07-22T13:56:46.240Z,29.60
2018-07-22T13:59:14.812Z,29.70
2018-07-22T14:01:43.355Z,29.70
2018-07-22T14:04:11.869Z,29.80
2018-07-22T14:06:40.674Z,30.00
2018-07-22T14:09:11.095Z,29.50
2018-07-22T14:11:39.674Z,29.20
2018-07-22T14:14:08.958Z,28.90
2018-07-22T14:16:37.682Z,29.20
2018-07-22T14:19:06.760Z,29.40
2018-07-22T14:21:35.370Z,28.80
2018-07-22T14:24:03.965Z,29.00
2018-07-22T14:26:32.503Z,28.80
2018-07-22T14:29:01.249Z,28.70
2018-07-22T14:31:29.806Z,29.00
2018-07-22T14:33:58.300Z,28.80
2018-07-22T14:36:27.096Z,28.80
2018-07-22T14:38:55.682Z,28.60
2018-07-22T14:41:25.557Z,29.10
2018-07-22T14:43:54.938Z,28.70
2018-07-22T14:46:23.456Z,28.60
2018-07-22T14:48:52.044Z,29.00
2018-07-22T14:51:20.930Z,29.60
2018-07-22T14:53:49.476Z,29.70
2018-07-22T14:58:46.259Z,30.90
2018-07-22T15:01:14.799Z,30.40
2018-07-22T15:03:44.055Z,30.00
2018-07-22T15:06:13.322Z,30.00
2018-07-22T15:08:42.203Z,29.80
2018-07-22T15:13:39.136Z,30.10
2018-07-22T15:16:08.288Z,31.30
2018-07-22T15:18:36.987Z,31.80
2018-07-22T15:21:05.692Z,32.00
2018-07-22T15:23:34.759Z,31.60
2018-07-22T15:26:03.877Z,31.70
2018-07-22T15:28:32.557Z,31.90
2018-07-22T15:31:02.853Z,31.80
2018-07-22T15:33:31.404Z,30.80
2018-07-22T15:36:00.878Z,29.20
2018-07-22T15:38:29.380Z,28.70
2018-07-22T15:40:57.875Z,28.30
2018-07-22T15:43:26.405Z,28.20
2018-07-22T15:45:54.910Z,28.50
2018-07-22T15:48:23.447Z,29.30
2018-07-22T15:50:52.029Z,29.80
2018-07-22T15:53:20.588Z,29.30
2018-07-22T15:55:49.205Z,29.90
2018-07-22T15:58:18.056Z,29.60
2018-07-22T16:00:46.604Z,29.20
2018-07-22T16:03:15.258Z,28.60
2018-07-22T16:05:43.912Z,28.60
2018-07-22T16:08:12.450Z,28.60
2018-07-22T16:10:40.978Z,28.50
2018-07-22T16:13:09.517Z,28.80
2018-07-22T16:15:38.106Z,29.50
2018-07-22T16:18:06.982Z,29.70
2018-07-22T16:20:35.545Z,30.00
2018-07-22T16:25:32.446Z,29.70
2018-07-22T16:28:01.010Z,30.30
2018-07-22T16:30:29.516Z,29.00
2018-07-22T16:32:58.027Z,28.60
2018-07-22T16:35:26.880Z,28.80
2018-07-22T16:37:55.505Z,28.40
2018-07-22T16:40:24.047Z,28.70
2018-07-22T16:42:52.868Z,28.50
2018-07-22T16:45:21.415Z,28.50
2018-07-22T16:47:50.931Z,28.50
2018-07-22T16:50:19.505Z,28.40
2018-07-22T16:52:48.040Z,28.40
2018-07-22T16:55:16.587Z,28.00
2018-07-22T16:57:45.166Z,27.70
2018-07-22T17:00:13.783Z,27.50
2018-07-22T17:02:42.310Z,27.20
2018-07-22T17:05:10.862Z,26.90
2018-07-22T17:07:39.511Z,26.80
2018-07-22T17:10:08.292Z,26.60
2018-07-22T17:12:36.929Z,26.60
2018-07-22T17:15:05.495Z,26.50
2018-07-22T17:17:34.050Z,26.50
2018-07-22T17:20:02.626Z,26.50
2018-07-22T17:22:31.182Z,26.50
2018-07-22T17:24:59.713Z,26.50
2018-07-22T17:27:28.325Z,26.50
2018-07-22T17:29:56.894Z,26.50
2018-07-22T17:32:25.890Z,26.40
2018-07-22T17:34:54.772Z,26.40
2018-07-22T17:37:23.296Z,26.30
2018-07-22T17:39:51.845Z,26.10
2018-07-22T17:42:20.384Z,26.10
2018-07-22T17:44:48.928Z,26.00
2018-07-22T17:47:17.473Z,26.10
2018-07-22T17:49:46.042Z,26.20
2018-07-22T17:52:14.563Z,26.20
2018-07-22T17:54:43.288Z,26.30
2018-07-22T17:57:11.896Z,26.30
2018-07-22T17:59:40.495Z,26.40
2018-07-22T18:02:09.083Z,26.40
2018-07-22T18:04:37.672Z,26.40
2018-07-22T18:07:06.234Z,26.40
2018-07-22T18:09:34.930Z,26.40
2018-07-22T18:12:03.595Z,26.40
2018-07-22T18:14:32.205Z,26.40
2018-07-22T18:17:00.771Z,26.30
2018-07-22T18:19:29.385Z,26.20
2018-07-22T18:21:58.867Z,26.10
2018-07-22T18:24:28.691Z,26.00
2018-07-22T18:26:58.097Z,25.80
2018-07-22T18:29:26.692Z,25.70
2018-07-22T18:31:55.371Z,25.70
2018-07-22T18:34:24.403Z,25.60
2018-07-22T18:36:52.921Z,25.50
2018-07-22T18:39:21.707Z,25.30
2018-07-22T18:44:18.614Z,25.20
2018-07-22T18:46:47.140Z,25.20
2018-07-22T18:49:15.704Z,25.00
2018-07-22T18:51:44.241Z,24.90
2018-07-22T18:54:12.934Z,24.90
2018-07-22T18:56:41.549Z,24.80
2018-07-22T18:59:10.234Z,24.60
2018-07-22T19:01:38.772Z,24.60
2018-07-22T19:04:08.176Z,24.50
2018-07-22T19:06:36.716Z,24.50
2018-07-22T19:09:07.608Z,24.30
2018-07-22T19:11:36.184Z,24.30
2018-07-22T19:14:04.737Z,24.20
2018-07-22T19:16:33.283Z,24.00
2018-07-22T19:19:01.889Z,23.90
2018-07-22T19:21:30.406Z,23.90
2018-07-22T19:26:27.406Z,23.90
2018-07-22T19:28:55.916Z,23.70
2018-07-22T19:31:24.484Z,23.90
2018-07-22T19:33:53.060Z,23.60
2018-07-22T19:36:21.584Z,23.40
2018-07-22T19:38:50.140Z,23.00
2018-07-22T19:41:18.666Z,23.00
2018-07-22T19:43:47.208Z,22.90
2018-07-22T19:46:15.756Z,22.80
2018-07-22T19:48:44.316Z,22.80
2018-07-22T19:51:12.834Z,22.20
2018-07-22T19:53:41.429Z,22.10
2018-07-22T19:56:11.980Z,21.80
2018-07-22T19:58:40.489Z,21.80
2018-07-22T20:01:09.037Z,22.00
2018-07-22T20:03:37.570Z,22.40
2018-07-22T20:08:34.350Z,22.00
2018-07-22T21:28:42.667Z,18.90
2018-07-22T21:31:11.265Z,18.90
2018-07-22T21:33:39.776Z,18.40
2018-07-22T21:36:09.087Z,18.40
2018-07-22T21:38:37.595Z,18.50
2018-07-22T21:41:06.109Z,18.50
2018-07-22T21:43:35.547Z,18.20
2018-07-22T21:46:04.100Z,18.00
2018-07-22T21:48:32.599Z,17.90
2018-07-22T21:51:01.785Z,17.90
2018-07-22T21:53:30.292Z,17.70
2018-07-22T21:55:58.831Z,17.60
2018-07-22T21:58:27.403Z,17.70
2018-07-22T22:00:55.954Z,17.70
2018-07-22T22:03:24.467Z,17.60
2018-07-22T22:05:53.174Z,17.50
2018-07-22T22:08:21.701Z,17.50
2018-07-22T22:10:50.297Z,17.50
2018-07-22T22:13:18.966Z,17.60
2018-07-22T22:15:47.497Z,17.60
2018-07-22T22:18:16.967Z,17.50
2018-07-22T22:20:45.601Z,17.60
2018-07-22T22:23:14.175Z,17.70
2018-07-22T22:25:42.818Z,17.70
2018-07-22T22:28:11.354Z,17.70
2018-07-22T22:33:08.121Z,17.50
2018-07-22T22:35:36.644Z,17.60
2018-07-22T22:38:05.166Z,17.60
2018-07-22T22:40:33.686Z,17.60
2018-07-22T22:43:02.210Z,17.70
2018-07-22T22:45:30.720Z,17.70
2018-07-22T22:47:59.212Z,17.70
2018-07-22T22:50:27.736Z,17.70
2018-07-22T22:52:56.282Z,17.50
2018-07-22T22:55:24.815Z,17.50
2018-07-22T22:58:04.542Z,17.50
2018-07-22T23:00:33.069Z,17.40
2018-07-22T23:03:01.574Z,17.30
2018-07-22T23:05:30.097Z,17.20
2018-07-22T23:07:58.622Z,17.10
2018-07-22T23:10:27.117Z,17.00
2018-07-22T23:12:55.659Z,17.00
2018-07-22T23:15:24.192Z,16.80
2018-07-22T23:17:53.450Z,16.70
2018-07-22T23:20:21.992Z,16.70
2018-07-22T23:22:50.512Z,16.70
2018-07-22T23:25:19.137Z,16.60
2018-07-22T23:27:47.691Z,16.60
2018-07-22T23:30:16.404Z,16.50
2018-07-22T23:32:44.955Z,16.50
2018-07-22T23:35:13.504Z,16.40
2018-07-22T23:37:42.033Z,16.50
2018-07-22T23:40:10.529Z,16.50
2018-07-22T23:42:39.060Z,16.30
2018-07-22T23:45:07.599Z,16.20
2018-07-22T23:47:36.119Z,16.20
2018-07-22T23:50:04.792Z,16.10
2018-07-22T23:52:33.323Z,16.00
2018-07-22T23:55:01.840Z,16.10
2018-07-22T23:57:30.408Z,16.00
2018-07-22T23:59:58.919Z,16.00
